Time;durP1;ratioP1;P1;durP2;ratioP2;P2;SDS_P1;SDS_P2;PMS_P1;PMS_P2;Temp;Humidity;BMP_temperature;BMP_pressure;BME280_temperature;BME280_humidity;BME280_pressure;Samples;Min_cycle;Max_cycle;Signal;HPM_P1;HPM_P2
2023/07/11 00:04:34;;;;;;;14.75;13.23;;;;;;;;;;10324017;28;20296;-79
2023/07/11 00:09:34;;;;;;;15.07;13.50;;;;;;;;;;10331047;28;20050;-75
2023/07/11 00:14:36;;;;;;;14.10;12.52;;;;;;;;;;10333354;28;20034;-73
2023/07/11 00:19:50;;;;;;;18.00;13.43;;;;;;;;;;10336588;28;20038;-76
2023/07/11 00:24:51;;;;;;;15.73;13.85;;;;;;;;;;10345009;28;20037;-76
2023/07/11 00:29:52;;;;;;;15.93;14.30;;;;;;;;;;10345693;28;20049;-75
2023/07/11 00:34:52;;;;;;;15.77;13.40;;;;;;;;;;10329739;28;20042;-77
2023/07/11 00:39:53;;;;;;;17.00;14.07;;;;;;;;;;10334576;28;20049;-75
2023/07/11 00:44:57;;;;;;;16.50;14.60;;;;;;;;;;10332956;28;20042;-75
2023/07/11 00:50:05;;;;;;;16.80;14.10;;;;;;;;;;10330161;28;20099;-79
2023/07/11 00:55:08;;;;;;;15.80;14.20;;;;;;;;;;10316264;28;20034;-76
2023/07/11 01:00:09;;;;;;;14.80;13.30;;;;;;;;;;10332812;28;20052;-73
2023/07/11 01:05:10;;;;;;;16.33;14.63;;;;;;;;;;10324341;28;20060;-74
2023/07/11 01:10:10;;;;;;;17.67;14.45;;;;;;;;;;10316797;28;20478;-72
2023/07/11 01:15:11;;;;;;;16.30;14.27;;;;;;;;;;10338658;28;20398;-74
2023/07/11 01:20:12;;;;;;;16.50;14.80;;;;;;;;;;10312728;28;20763;-75
2023/07/11 01:25:13;;;;;;;16.80;14.57;;;;;;;;;;10345076;28;20327;-76
2023/07/11 01:30:24;;;;;;;16.20;14.50;;;;;;;;;;10345151;28;20038;-74
2023/07/11 01:35:25;;;;;;;16.20;14.52;;;;;;;;;;10344209;28;20061;-78
2023/07/11 01:40:25;;;;;;;16.77;14.97;;;;;;;;;;10339346;28;20113;-82
2023/07/11 01:45:26;;;;;;;18.77;16.50;;;;;;;;;;10343137;28;20290;-78
2023/07/11 01:50:28;;;;;;;17.15;15.35;;;;;;;;;;10339617;28;20049;-73
2023/07/11 01:55:29;;;;;;;18.50;15.70;;;;;;;;;;10325481;28;20073;-73
2023/07/11 02:00:29;;;;;;;16.42;14.73;;;;;;;;;;10342831;28;20038;-73
2023/07/11 02:05:29;;;;;;;17.23;15.40;;;;;;;;;;10345545;28;20041;-75
2023/07/11 02:10:30;;;;;;;16.03;14.03;;;;;;;;;;10320130;28;20073;-74
2023/07/11 02:15:32;;;;;;;15.43;13.82;;;;;;;;;;10337327;28;20284;-75
2023/07/11 02:20:32;;;;;;;16.27;14.10;;;;;;;;;;10341631;28;20320;-75
2023/07/11 02:25:32;;;;;;;18.42;15.02;;;;;;;;;;10331511;28;20038;-72
2023/07/11 02:30:36;;;;;;;16.37;14.63;;;;;;;;;;10342324;28;20052;-70
2023/07/11 02:35:36;;;;;;;18.70;15.02;;;;;;;;;;10321863;28;20038;-73
2023/07/11 02:40:37;;;;;;;17.63;15.73;;;;;;;;;;10335655;28;20042;-76
2023/07/11 02:45:37;;;;;;;16.63;14.90;;;;;;;;;;10352689;28;20033;-75
2023/07/11 02:50:38;;;;;;;16.50;14.03;;;;;;;;;;10338545;28;20145;-72
2023/07/11 02:55:39;;;;;;;17.63;15.20;;;;;;;;;;10333470;28;20297;-72
2023/07/11 03:00:45;;;;;;;17.27;14.55;;;;;;;;;;10334281;28;20185;-72
2023/07/11 03:05:47;;;;;;;14.63;13.05;;;;;;;;;;10331292;28;20034;-71
2023/07/11 03:10:47;;;;;;;17.10;14.15;;;;;;;;;;10339411;28;20048;-77
2023/07/11 03:15:48;;;;;;;14.57;12.98;;;;;;;;;;10333928;28;20060;-78
2023/07/11 03:20:48;;;;;;;15.63;13.93;;;;;;;;;;10339287;28;20037;-75
2023/07/11 03:25:48;;;;;;;16.77;14.68;;;;;;;;;;10335313;28;20292;-73
2023/07/11 03:30:51;;;;;;;16.60;13.38;;;;;;;;;;10321006;28;20041;-72
2023/07/11 03:35:51;;;;;;;15.10;13.57;;;;;;;;;;10336407;28;20066;-72
2023/07/11 03:40:52;;;;;;;15.98;14.15;;;;;;;;;;10321032;28;20056;-73
2023/07/11 03:45:52;;;;;;;17.67;14.32;;;;;;;;;;10333003;28;20030;-76
2023/07/11 03:50:53;;;;;;;15.32;13.68;;;;;;;;;;10334740;28;20050;-73
2023/07/11 03:55:53;;;;;;;16.63;14.07;;;;;;;;;;10314938;28;20528;-72
2023/07/11 04:00:54;;;;;;;16.57;14.13;;;;;;;;;;10338762;28;20312;-73
2023/07/11 04:05:56;;;;;;;14.95;13.30;;;;;;;;;;10315005;28;20037;-72
2023/07/11 04:10:59;;;;;;;19.27;14.90;;;;;;;;;;10332354;28;20104;-78
2023/07/11 04:15:59;;;;;;;17.73;15.10;;;;;;;;;;10327616;28;20508;-73
2023/07/11 04:21:00;;;;;;;17.65;15.32;;;;;;;;;;10329426;28;20037;-71
2023/07/11 04:26:00;;;;;;;16.70;14.93;;;;;;;;;;10333426;28;20034;-73
2023/07/11 04:31:01;;;;;;;14.83;13.40;;;;;;;;;;10313805;28;20041;-77
2023/07/11 04:36:06;;;;;;;16.52;14.18;;;;;;;;;;10337771;28;20863;-79
2023/07/11 04:41:07;;;;;;;16.05;14.35;;;;;;;;;;10334175;28;20074;-73
2023/07/11 04:46:08;;;;;;;14.40;12.68;;;;;;;;;;10330621;28;20126;-70
2023/07/11 04:51:10;;;;;;;14.90;13.30;;;;;;;;;;10331878;28;20121;-70
2023/07/11 04:56:11;;;;;;;15.45;13.85;;;;;;;;;;10316898;28;20562;-71
2023/07/11 05:01:12;;;;;;;15.10;13.52;;;;;;;;;;10324525;28;20141;-71
2023/07/11 05:06:13;;;;;;;15.95;13.95;;;;;;;;;;10332628;28;20049;-70
2023/07/11 05:11:15;;;;;;;17.10;13.70;;;;;;;;;;10321234;28;20115;-70
2023/07/11 05:16:17;;;;;;;15.90;13.57;;;;;;;;;;10326537;28;20369;-71
2023/07/11 05:21:18;;;;;;;14.77;12.10;;;;;;;;;;10330744;28;20280;-75
2023/07/11 05:26:18;;;;;;;15.27;12.93;;;;;;;;;;10325810;28;20599;-71
2023/07/11 05:31:19;;;;;;;14.87;12.77;;;;;;;;;;10321866;28;20124;-72
2023/07/11 05:41:27;;;;;;;14.80;12.95;;;;;;;;;;10312103;28;20763;-73
2023/07/11 05:46:28;;;;;;;15.02;13.48;;;;;;;;;;10331340;28;20041;-74
2023/07/11 05:51:29;;;;;;;14.82;13.25;;;;;;;;;;10326926;28;20152;-73
2023/07/11 05:56:29;;;;;;;14.45;12.88;;;;;;;;;;10328775;28;20052;-71
2023/07/11 06:01:30;;;;;;;14.02;12.43;;;;;;;;;;10325960;28;21455;-73
2023/07/11 06:06:32;;;;;;;13.93;12.13;;;;;;;;;;10330259;28;20038;-70
2023/07/11 06:11:32;;;;;;;14.57;12.87;;;;;;;;;;10316744;28;20050;-73
2023/07/11 06:16:33;;;;;;;16.77;12.63;;;;;;;;;;10316311;28;20046;-72
2023/07/11 06:21:33;;;;;;;14.63;12.63;;;;;;;;;;10331017;28;20281;-71
2023/07/11 06:26:33;;;;;;;16.30;13.00;;;;;;;;;;10335637;28;20030;-76
2023/07/11 06:31:34;;;;;;;14.50;12.93;;;;;;;;;;10327624;28;20321;-74
2023/07/11 06:36:34;;;;;;;13.33;11.80;;;;;;;;;;10332962;28;20073;-73
2023/07/11 06:41:35;;;;;;;15.27;13.27;;;;;;;;;;10336060;28;20287;-72
2023/07/11 06:46:35;;;;;;;16.13;12.77;;;;;;;;;;10336524;28;20061;-73
2023/07/11 06:51:35;;;;;;;16.13;12.52;;;;;;;;;;10344154;28;20321;-74
2023/07/11 06:56:36;;;;;;;11.63;10.17;;;;;;;;;;10342481;28;20044;-75
2023/07/11 07:01:36;;;;;;;11.40;10.20;;;;;;;;;;10339685;28;20863;-76
2023/07/11 07:06:37;;;;;;;12.77;10.27;;;;;;;;;;10326400;28;20050;-74
2023/07/11 07:11:37;;;;;;;12.50;11.13;;;;;;;;;;10333087;28;20181;-74
2023/07/11 07:16:38;;;;;;;15.23;12.20;;;;;;;;;;10332191;28;20320;-74
2023/07/11 07:21:39;;;;;;;14.00;12.48;;;;;;;;;;10333403;28;20034;-80
2023/07/11 07:26:41;;;;;;;13.05;11.23;;;;;;;;;;10336567;28;20055;-76
2023/07/11 07:31:41;;;;;;;15.40;12.20;;;;;;;;;;10334873;28;20685;-78
2023/07/11 07:36:41;;;;;;;15.20;10.63;;;;;;;;;;10321085;28;20060;-78
2023/07/11 07:41:42;;;;;;;14.73;11.73;;;;;;;;;;10334857;28;20328;-79
2023/07/11 07:46:43;;;;;;;14.97;11.80;;;;;;;;;;10328638;28;20074;-77
2023/07/11 07:51:43;;;;;;;11.60;10.37;;;;;;;;;;10330564;28;20062;-78
2023/07/11 07:56:43;;;;;;;13.10;10.67;;;;;;;;;;10330968;28;20157;-80
2023/07/11 08:01:45;;;;;;;11.50;10.30;;;;;;;;;;10318415;28;20045;-78
2023/07/11 08:06:45;;;;;;;11.52;10.43;;;;;;;;;;10337798;28;20718;-79
2023/07/11 08:11:45;;;;;;;11.07;9.70;;;;;;;;;;10333403;28;20081;-78
2023/07/11 08:16:52;;;;;;;11.70;9.57;;;;;;;;;;10309456;28;20033;-77
2023/07/11 08:21:53;;;;;;;10.70;9.48;;;;;;;;;;10330859;28;20041;-79
2023/07/11 08:26:54;;;;;;;10.50;9.30;;;;;;;;;;10335066;28;20433;-80
2023/07/11 08:31:54;;;;;;;12.23;8.70;;;;;;;;;;10319556;28;20046;-76
2023/07/11 08:36:55;;;;;;;10.00;7.90;;;;;;;;;;10330693;28;20034;-78
2023/07/11 08:41:56;;;;;;;9.77;7.43;;;;;;;;;;10332186;28;20048;-76
2023/07/11 08:46:58;;;;;;;9.40;7.63;;;;;;;;;;10319837;28;20041;-81
2023/07/11 08:52:01;;;;;;;10.32;7.13;;;;;;;;;;10336434;28;20587;-79
2023/07/11 08:57:01;;;;;;;6.15;5.55;;;;;;;;;;10327532;28;20084;-77
2023/07/11 09:02:10;;;;;;;6.83;5.50;;;;;;;;;;10327650;28;20045;-78
2023/07/11 09:07:20;;;;;;;8.45;5.82;;;;;;;;;;10328750;28;20042;-77
2023/07/11 09:12:32;;;;;;;7.18;6.22;;;;;;;;;;10328093;28;20045;-79
2023/07/11 09:17:37;;;;;;;7.60;6.00;;;;;;;;;;10331323;28;20066;-77
2023/07/11 09:22:59;;;;;;;6.60;5.90;;;;;;;;;;10332612;28;20038;-79
2023/07/11 09:28:06;;;;;;;7.35;6.15;;;;;;;;;;10331975;28;20052;-75
2023/07/11 09:33:30;;;;;;;6.60;5.88;;;;;;;;;;10335235;28;20045;-80
2023/07/11 09:38:46;;;;;;;7.10;6.50;;;;;;;;;;10361395;28;20046;-85
2023/07/11 09:43:47;;;;;;;8.82;6.38;;;;;;;;;;10391129;28;20073;-84
2023/07/11 09:48:50;;;;;;;7.32;5.85;;;;;;;;;;10377293;28;20124;-79
2023/07/11 09:53:53;;;;;;;6.68;5.97;;;;;;;;;;10332467;28;20073;-82
2023/07/11 09:58:59;;;;;;;6.43;5.78;;;;;;;;;;10320196;28;20045;-78
2023/07/11 10:04:00;;;;;;;7.05;6.25;;;;;;;;;;10338426;28;20038;-77
2023/07/11 10:09:04;;;;;;;6.75;5.90;;;;;;;;;;10337733;28;20034;-79
2023/07/11 10:14:04;;;;;;;8.10;6.55;;;;;;;;;;10343988;28;20042;-78
2023/07/11 10:19:12;;;;;;;7.33;6.50;;;;;;;;;;10326670;28;20108;-85
2023/07/11 10:24:21;;;;;;;7.22;6.25;;;;;;;;;;10341109;28;20048;-82
2023/07/11 10:29:24;;;;;;;6.47;5.70;;;;;;;;;;10343115;28;20788;-82
2023/07/11 10:34:39;;;;;;;7.55;6.75;;;;;;;;;;10338294;28;20026;-81
2023/07/11 10:39:40;;;;;;;8.65;6.47;;;;;;;;;;10332460;28;20121;-77
2023/07/11 10:44:40;;;;;;;;;;;;;;;;;;10311502;28;20073;-75
2023/07/11 10:49:45;;;;;;;6.65;5.95;;;;;;;;;;10338160;28;20750;-78
2023/07/11 10:55:05;;;;;;;8.60;6.53;;;;;;;;;;10341654;28;20903;-78
2023/07/11 11:00:16;;;;;;;7.50;6.30;;;;;;;;;;10352421;28;20168;-80
2023/07/11 11:05:16;;;;;;;6.72;6.13;;;;;;;;;;10340910;28;20038;-78
2023/07/11 11:10:16;;;;;;;;;;;;;;;;;;10322858;28;20030;-79
2023/07/11 11:15:43;;;;;;;6.88;6.22;;;;;;;;;;10340272;28;19921;-80
2023/07/11 11:21:03;;;;;;;9.38;6.63;;;;;;;;;;10306090;28;20046;-77
2023/07/11 11:26:04;;;;;;;6.97;6.28;;;;;;;;;;10347835;28;20459;-79
2023/07/11 11:31:04;;;;;;;;;;;;;;;;;;10344055;28;20129;-78
2023/07/11 11:36:08;;;;;;;8.57;6.45;;;;;;;;;;10335834;28;20850;-78
2023/07/11 11:41:11;;;;;;;6.13;5.53;;;;;;;;;;10368317;28;20223;-78
2023/07/11 11:46:13;;;;;;;6.60;5.93;;;;;;;;;;10422879;28;20084;-78
2023/07/11 11:51:15;;;;;;;6.47;5.88;;;;;;;;;;10411624;28;20061;-81
2023/07/11 11:56:17;;;;;;;7.15;6.00;;;;;;;;;;10412401;28;20452;-77
2023/07/11 12:01:53;;;;;;;7.05;6.35;;;;;;;;;;10418241;28;20029;-81
2023/07/11 12:07:08;;;;;;;6.47;5.82;;;;;;;;;;10324519;28;20048;-81
2023/07/11 12:12:16;;;;;;;7.00;5.68;;;;;;;;;;10411637;28;20044;-81
2023/07/11 12:17:29;;;;;;;6.38;5.78;;;;;;;;;;10417606;28;20045;-81
2023/07/11 12:22:32;;;;;;;6.45;5.85;;;;;;;;;;10408590;28;20596;-78
2023/07/11 12:27:32;;;;;;;6.07;5.47;;;;;;;;;;10421965;28;20044;-82
2023/07/11 12:32:32;;;;;;;6.30;5.47;;;;;;;;;;10436224;28;20057;-83
2023/07/11 12:37:46;;;;;;;6.47;5.40;;;;;;;;;;10469097;28;20069;-88
2023/07/11 12:42:51;;;;;;;6.75;6.03;;;;;;;;;;10470613;28;20041;-83
2023/07/11 12:48:05;;;;;;;5.80;5.10;;;;;;;;;;10432429;28;20385;-80
2023/07/11 12:53:06;;;;;;;5.93;5.32;;;;;;;;;;10412112;28;20033;-79
2023/07/11 12:58:14;;;;;;;6.40;5.43;;;;;;;;;;10445281;28;20022;-78
2023/07/11 13:03:18;;;;;;;5.70;5.20;;;;;;;;;;10419370;28;20033;-79
2023/07/11 13:08:19;;;;;;;5.93;5.25;;;;;;;;;;10400170;28;20452;-80
2023/07/11 13:13:20;;;;;;;12.20;5.97;;;;;;;;;;10414434;28;20075;-81
2023/07/11 13:18:21;;;;;;;5.82;5.32;;;;;;;;;;10418877;28;20147;-82
2023/07/11 13:23:22;;;;;;;6.00;5.40;;;;;;;;;;10427131;28;20039;-91
2023/07/11 13:28:23;;;;;;;5.65;5.05;;;;;;;;;;10424143;28;20076;-89
2023/07/11 13:33:28;;;;;;;6.18;5.10;;;;;;;;;;10437152;28;20033;-80
2023/07/11 13:38:33;;;;;;;5.88;4.90;;;;;;;;;;10438979;28;20497;-80
2023/07/11 13:43:33;;;;;;;6.05;5.45;;;;;;;;;;10428306;28;20041;-78
2023/07/11 13:48:34;;;;;;;6.07;5.22;;;;;;;;;;10428776;28;20044;-78
2023/07/11 13:53:37;;;;;;;6.53;5.72;;;;;;;;;;10430978;28;20029;-80
2023/07/11 13:58:37;;;;;;;6.57;4.93;;;;;;;;;;10425022;28;20144;-82
2023/07/11 14:03:38;;;;;;;6.75;5.13;;;;;;;;;;10430819;28;20412;-80
2023/07/11 14:08:39;;;;;;;10.07;5.27;;;;;;;;;;10426925;28;20211;-79
2023/07/11 14:13:40;;;;;;;8.23;5.45;;;;;;;;;;10415337;28;20037;-81
2023/07/11 14:18:41;;;;;;;6.53;5.93;;;;;;;;;;10423986;28;20038;-84
2023/07/11 14:23:42;;;;;;;8.83;5.50;;;;;;;;;;10426979;28;20033;-79
2023/07/11 14:28:42;;;;;;;6.18;5.65;;;;;;;;;;10421041;28;20326;-83
2023/07/11 14:33:42;;;;;;;6.33;5.50;;;;;;;;;;10415941;28;20037;-81
2023/07/11 14:38:43;;;;;;;8.03;6.83;;;;;;;;;;10344689;28;23246;-81
2023/07/11 14:43:43;;;;;;;7.07;5.87;;;;;;;;;;10310711;28;20367;-82
2023/07/11 14:48:43;;;;;;;6.17;5.30;;;;;;;;;;10338945;28;142938;-80
2023/07/11 14:53:44;;;;;;;7.67;6.10;;;;;;;;;;10378072;28;21270;-82
2023/07/11 14:58:48;;;;;;;6.68;5.97;;;;;;;;;;10376815;28;21264;-79
2023/07/11 15:03:49;;;;;;;6.15;5.47;;;;;;;;;;10381746;28;20041;-80
2023/07/11 15:08:51;;;;;;;8.27;6.03;;;;;;;;;;10377070;28;20511;-79
2023/07/11 15:13:51;;;;;;;6.65;5.93;;;;;;;;;;10380891;28;20111;-79
2023/07/11 15:18:51;;;;;;;7.20;6.47;;;;;;;;;;10376546;28;20112;-81
2023/07/11 15:23:52;;;;;;;7.17;5.93;;;;;;;;;;10382991;28;20297;-84
2023/07/11 15:28:52;;;;;;;10.82;8.30;;;;;;;;;;10401680;28;20076;-92
2023/07/11 15:33:52;;;;;;;6.73;5.87;;;;;;;;;;10426733;28;20059;-87
2023/07/11 15:38:53;;;;;;;6.40;5.73;;;;;;;;;;10430652;28;20291;-83
2023/07/11 15:43:53;;;;;;;6.93;6.32;;;;;;;;;;10393991;28;20060;-86
2023/07/11 15:48:57;;;;;;;6.88;6.20;;;;;;;;;;10388919;28;20042;-88
2023/07/11 15:53:57;;;;;;;7.00;6.30;;;;;;;;;;10413966;28;20116;-84
2023/07/11 15:58:58;;;;;;;6.38;5.78;;;;;;;;;;10385770;28;20037;-84
2023/07/11 16:03:58;;;;;;;7.00;6.30;;;;;;;;;;10381546;28;20044;-83
2023/07/11 16:08:59;;;;;;;6.90;6.00;;;;;;;;;;10388111;28;20049;-86
2023/07/11 16:13:59;;;;;;;6.83;6.13;;;;;;;;;;10370630;28;20103;-86
2023/07/11 16:18:59;;;;;;;7.17;6.13;;;;;;;;;;10402259;28;20030;-87
2023/07/11 16:24:00;;;;;;;7.67;6.13;;;;;;;;;;10391552;28;20037;-88
2023/07/11 16:29:00;;;;;;;7.10;6.30;;;;;;;;;;10380585;28;20049;-81
2023/07/11 16:34:00;;;;;;;8.25;6.55;;;;;;;;;;10376467;28;20033;-84
2023/07/11 16:39:01;;;;;;;8.63;7.07;;;;;;;;;;10383714;28;20033;-84
2023/07/11 16:44:01;;;;;;;6.67;6.00;;;;;;;;;;10380494;28;20129;-84
2023/07/11 16:49:02;;;;;;;6.87;6.13;;;;;;;;;;10373985;28;20060;-85
2023/07/11 16:54:10;;;;;;;7.32;6.18;;;;;;;;;;10380238;28;20096;-84
2023/07/11 16:59:17;;;;;;;7.68;6.75;;;;;;;;;;10388173;28;20041;-88
2023/07/11 17:04:18;;;;;;;6.57;5.85;;;;;;;;;;10389079;28;20066;-86
2023/07/11 17:09:20;;;;;;;8.68;7.03;;;;;;;;;;10398216;28;20041;-88
2023/07/11 17:14:21;;;;;;;7.80;6.50;;;;;;;;;;10393104;28;20037;-86
2023/07/11 17:19:29;;;;;;;6.63;5.93;;;;;;;;;;10383306;28;20176;-87
2023/07/11 17:24:32;;;;;;;7.68;6.03;;;;;;;;;;10374989;28;20060;-84
2023/07/11 17:29:33;;;;;;;7.90;7.10;;;;;;;;;;10377000;28;20046;-85
2023/07/11 17:34:33;;;;;;;9.20;7.70;;;;;;;;;;10374124;28;20038;-85
2023/07/11 17:39:34;;;;;;;8.40;7.07;;;;;;;;;;10374637;28;20078;-84
2023/07/11 17:44:34;;;;;;;7.53;6.83;;;;;;;;;;10375831;28;20367;-81
2023/07/11 17:49:34;;;;;;;7.93;6.25;;;;;;;;;;10378451;28;20044;-84
2023/07/11 17:54:35;;;;;;;6.77;5.90;;;;;;;;;;10369993;28;20030;-82
2023/07/11 17:59:38;;;;;;;9.30;7.35;;;;;;;;;;10375268;28;20041;-85
2023/07/11 18:04:39;;;;;;;7.07;6.10;;;;;;;;;;10366041;28;20049;-82
2023/07/11 18:09:39;;;;;;;7.85;6.38;;;;;;;;;;10391744;28;20169;-82
2023/07/11 18:14:40;;;;;;;10.33;8.00;;;;;;;;;;10396670;28;20041;-84
2023/07/11 18:19:42;;;;;;;7.63;6.83;;;;;;;;;;10409847;28;20069;-84
2023/07/11 18:24:42;;;;;;;11.77;7.40;;;;;;;;;;10429847;28;20120;-84
2023/07/11 18:29:44;;;;;;;;;;;;;;;;;;10423036;28;20235;-82
2023/07/11 18:34:46;;;;;;;11.77;8.98;;;;;;;;;;10423460;28;21074;-84
2023/07/11 18:39:47;;;;;;;8.82;7.93;;;;;;;;;;10403378;28;20037;-84
2023/07/11 18:44:49;;;;;;;9.15;7.47;;;;;;;;;;10420365;28;20129;-84
2023/07/11 18:49:53;;;;;;;8.27;6.65;;;;;;;;;;10401682;28;20053;-86
2023/07/11 18:54:54;;;;;;;8.52;7.45;;;;;;;;;;10375201;28;20076;-84
2023/07/11 18:59:55;;;;;;;9.73;7.10;;;;;;;;;;10378476;28;20561;-80
2023/07/11 19:04:55;;;;;;;;;;;;;;;;;;10383158;28;20044;-79
2023/07/11 19:09:56;;;;;;;11.38;10.18;;;;;;;;;;10386215;28;19963;-87
2023/07/11 19:14:58;;;;;;;12.02;10.82;;;;;;;;;;10380973;28;20107;-85
2023/07/11 19:19:58;;;;;;;14.93;12.93;;;;;;;;;;10393756;28;20029;-84
2023/07/11 19:24:58;;;;;;;13.17;11.83;;;;;;;;;;10391843;28;20063;-85
2023/07/11 19:29:59;;;;;;;12.20;10.93;;;;;;;;;;10382444;28;20042;-87
2023/07/11 19:34:59;;;;;;;11.03;10.03;;;;;;;;;;10392451;28;20025;-83
2023/07/11 19:39:59;;;;;;;11.57;9.63;;;;;;;;;;10390694;28;20091;-82
2023/07/11 19:45:01;;;;;;;12.93;10.40;;;;;;;;;;10390553;28;20037;-84
2023/07/11 19:50:01;;;;;;;19.02;17.13;;;;;;;;;;10394745;28;20045;-84
2023/07/11 19:55:02;;;;;;;14.35;12.85;;;;;;;;;;10386854;28;20754;-87
2023/07/11 20:00:17;;;;;;;13.17;11.87;;;;;;;;;;10411711;28;20052;-86
2023/07/11 20:05:21;;;;;;;13.02;11.70;;;;;;;;;;10389218;28;20502;-85
2023/07/11 20:10:41;;;;;;;13.40;11.40;;;;;;;;;;10385502;28;20140;-89
2023/07/11 20:15:46;;;;;;;11.63;10.38;;;;;;;;;;10394146;28;20044;-84
2023/07/11 20:20:56;;;;;;;11.82;10.52;;;;;;;;;;10404838;28;20148;-83
2023/07/11 20:25:59;;;;;;;11.15;9.95;;;;;;;;;;10388326;28;20049;-86
2023/07/11 20:31:00;;;;;;;11.27;10.18;;;;;;;;;;10394699;28;20068;-83
2023/07/11 20:36:14;;;;;;;11.27;10.07;;;;;;;;;;10381445;28;20040;-84
2023/07/11 20:41:23;;;;;;;12.15;10.20;;;;;;;;;;10394642;28;20046;-84
2023/07/11 20:46:28;;;;;;;10.77;9.30;;;;;;;;;;10390305;28;20060;-88
2023/07/11 20:51:50;;;;;;;11.23;9.65;;;;;;;;;;10394191;28;20059;-85
2023/07/11 20:56:58;;;;;;;12.55;10.40;;;;;;;;;;10389349;28;20049;-89
2023/07/11 21:02:00;;;;;;;13.20;10.47;;;;;;;;;;10396453;28;20045;-85
2023/07/11 21:07:05;;;;;;;10.82;9.60;;;;;;;;;;10405910;28;20050;-90
2023/07/11 21:12:10;;;;;;;13.77;10.13;;;;;;;;;;10405314;28;20034;-90
2023/07/11 21:17:13;;;;;;;13.20;10.20;;;;;;;;;;10432814;28;20093;-89
2023/07/11 21:28:00;;;;;;;10.88;9.60;;;;;;;;;;10348168;28;20074;-86
2023/07/11 21:33:14;;;;;;;12.50;10.77;;;;;;;;;;10323429;28;20047;-85
2023/07/11 21:38:17;;;;;;;10.45;9.27;;;;;;;;;;10300867;28;20540;-83
2023/07/11 21:43:18;;;;;;;10.52;9.40;;;;;;;;;;10332557;28;20108;-83
2023/07/11 21:48:24;;;;;;;9.67;8.67;;;;;;;;;;10371952;28;20104;-83
2023/07/11 21:53:26;;;;;;;9.68;7.93;;;;;;;;;;10351016;28;20081;-83
2023/07/11 21:58:32;;;;;;;;;;;;;;;;;;10350428;28;20042;-83
2023/07/11 22:03:52;;;;;;;8.38;6.63;;;;;;;;;;10348032;28;19972;-81
2023/07/11 22:09:00;;;;;;;6.63;5.93;;;;;;;;;;10350822;28;20073;-86
2023/07/11 22:14:06;;;;;;;6.00;4.30;;;;;;;;;;10351193;28;20553;-83
2023/07/11 22:19:26;;;;;;;4.68;4.10;;;;;;;;;;10344140;28;20394;-83
2023/07/11 22:24:58;;;;;;;4.50;3.95;;;;;;;;;;10354731;28;20081;-83
2023/07/11 22:30:01;;;;;;;4.33;3.63;;;;;;;;;;10348563;28;20062;-90
2023/07/11 22:35:04;;;;;;;4.78;3.33;;;;;;;;;;10362568;28;20042;-86
2023/07/11 22:40:27;;;;;;;4.82;3.22;;;;;;;;;;10344427;28;20053;-87
2023/07/11 22:45:30;;;;;;;3.78;2.78;;;;;;;;;;10344020;28;20038;-89
2023/07/11 22:50:33;;;;;;;4.95;3.10;;;;;;;;;;10342989;28;20558;-82
2023/07/11 22:55:34;;;;;;;3.88;3.10;;;;;;;;;;10339779;28;20058;-83
2023/07/11 23:00:36;;;;;;;5.75;3.25;;;;;;;;;;10344305;28;20456;-83
2023/07/11 23:05:36;;;;;;;4.90;2.95;;;;;;;;;;10339700;28;20033;-80
2023/07/11 23:10:37;;;;;;;4.50;3.25;;;;;;;;;;10335244;28;20108;-85
2023/07/11 23:15:38;;;;;;;6.72;3.65;;;;;;;;;;10337579;28;20041;-85
2023/07/11 23:20:42;;;;;;;5.10;3.72;;;;;;;;;;10351587;28;20088;-86
2023/07/11 23:25:42;;;;;;;5.18;4.68;;;;;;;;;;10346077;28;20042;-81
2023/07/11 23:30:44;;;;;;;5.75;4.53;;;;;;;;;;10343180;28;20046;-84
2023/07/11 23:35:45;;;;;;;6.40;4.73;;;;;;;;;;10350078;28;20042;-80
2023/07/11 23:40:46;;;;;;;6.07;4.53;;;;;;;;;;10344732;28;20124;-81
2023/07/11 23:45:52;;;;;;;7.97;5.20;;;;;;;;;;10368450;28;20050;-81
2023/07/11 23:50:56;;;;;;;6.88;5.30;;;;;;;;;;10339156;28;20073;-77
2023/07/11 23:55:57;;;;;;;6.40;5.30;;;;;;;;;;10348624;28;20073;-81
